Weather History for Hutchinson, MN

Change the Weather History Date:

Tuesday, November 12, 2013

  Actual Average Record
Temperature  
Mean Temperature 18 °F -  
Max Temperature 29 °F 38 °F 66 °F (2001)
Min Temperature 8 °F 23 °F -11 °F (1966)
Degree Days  
Heating Degree Days 46    
Moisture  
Dew Point 11 °F    
Average Humidity 73    
Maximum Humidity 89    
Minimum Humidity 46    
Precipitation  
Precipitation 0.00 in - - ()
Sea Level Pressure  
Sea Level Pressure 30.66 in    
Wind  
Wind Speed 6 mph (SW)    
Max Wind Speed 12 mph    
Max Gust Speed 16 mph    
Visibility 10 miles    
Events      
Averages and records for this station are not official NWS values.
T = Trace of Precipitation, MM = Missing Value Source: NWS Daily Summary

Daily Weather History Graph

Daily Weather History Graph

Search for Another Location

Airport:

Trip Planner

Search our weather history database for the weather conditions in past years. The results will help you decide how hot, cold, wet, or windy it might be!

Date:

Astronomy

Nov. 12, 2013 Rise Set
Actual Time 7:11 AM CST 4:51 PM CST
Civil Twilight 6:39 AM CST 5:23 PM CST
Nautical Twilight 6:04 AM CST 5:58 PM CST
Astronomical Twilight 5:29 AM CST 6:32 PM CST
Moon 2:17 PM CST (11/12) 1:49 AM CST (11/12)
Length of Visible Light 10h 43m
Length of Day
9h 40m
Waxing Gibbous, 76% of the Moon is Illuminated
Nov 12
Waxing Gibbous
Nov 17
Full
Nov 25
Last Quarter
Dec 2
New
Dec 9
First Quarter

Hourly Weather History & Observations

Time (CST) Temp. Windchill Dew Point Humidity Pressure Visibility Wind Dir Wind Speed Gust Speed Precip Events Conditions
12:13 AM 14.0 °F 2.9 °F 8.4 °F 78% 30.74 in 10.0 mi NW 8.1 mph - N/A   Clear
12:33 AM 14.0 °F 2.9 °F 7.7 °F 76% 30.75 in 10.0 mi NW 8.1 mph - N/A   Clear
12:53 AM 13.1 °F 4.0 °F 7.9 °F 80% 30.76 in 10.0 mi WNW 5.8 mph - N/A   Clear
1:13 AM 12.2 °F 4.3 °F 7.7 °F 82% 30.75 in 10.0 mi NW 4.6 mph - N/A   Clear
1:34 AM 12.0 °F 4.1 °F 7.7 °F 83% 30.74 in 10.0 mi WNW 4.6 mph - N/A   Clear
1:53 AM 11.3 °F 1.9 °F 7.2 °F 83% 30.75 in 10.0 mi WNW 5.8 mph - N/A   Clear
2:13 AM 11.7 °F 2.3 °F 7.7 °F 84% 30.75 in 10.0 mi WNW 5.8 mph - N/A   Clear
2:33 AM 11.3 °F 3.3 °F 7.5 °F 85% 30.75 in 10.0 mi WNW 4.6 mph - N/A   Clear
2:53 AM 11.5 °F 3.5 °F 7.5 °F 84% 30.75 in 10.0 mi West 4.6 mph - N/A   Clear
3:13 AM 11.1 °F 3.1 °F 7.3 °F 85% 30.76 in 10.0 mi WNW 4.6 mph - N/A   Clear
3:34 AM 10.4 °F 2.2 °F 6.8 °F 85% 30.76 in 10.0 mi WNW 4.6 mph - N/A   Clear
3:53 AM 11.1 °F 0.4 °F 7.3 °F 85% 30.77 in 10.0 mi WNW 6.9 mph - N/A   Clear
4:13 AM 11.1 °F 0.4 °F 6.8 °F 83% 30.78 in 10.0 mi NW 6.9 mph - N/A   Clear
4:33 AM 10.9 °F 2.9 °F 6.8 °F 83% 30.78 in 10.0 mi WNW 4.6 mph - N/A   Clear
4:53 AM 10.4 °F 4.0 °F 6.6 °F 85% 30.77 in 10.0 mi West 3.5 mph - N/A   Clear
5:14 AM 9.5 °F 1.2 °F 6.4 °F 87% 30.77 in 10.0 mi West 4.6 mph - N/A   Clear
5:33 AM 9.5 °F 3.0 °F 6.1 °F 86% 30.77 in 10.0 mi West 3.5 mph - N/A   Clear
5:53 AM 8.6 °F 0.1 °F 5.9 °F 89% 30.77 in 10.0 mi West 4.6 mph - N/A   Clear
6:13 AM 9.0 °F 0.6 °F 6.1 °F 88% 30.77 in 10.0 mi West 4.6 mph - N/A   Clear
6:33 AM 9.0 °F 2.4 °F 6.4 °F 89% 30.78 in 10.0 mi WSW 3.5 mph - N/A   Clear
6:53 AM 8.4 °F -1.6 °F 5.9 °F 89% 30.77 in 10.0 mi WSW 5.8 mph - N/A   Clear
7:14 AM 8.4 °F 1.8 °F 5.9 °F 89% 30.78 in 10.0 mi West 3.5 mph - N/A   Clear
7:33 AM 9.1 °F 0.8 °F 6.6 °F 89% 30.77 in 10.0 mi WSW 4.6 mph - N/A   Clear
7:54 AM 10.0 °F 3.6 °F 7.3 °F 89% 30.77 in 10.0 mi WSW 3.5 mph - N/A   Clear
8:13 AM 11.3 °F 1.9 °F 8.4 °F 88% 30.78 in 10.0 mi WSW 5.8 mph - N/A   Clear
8:33 AM 12.7 °F 2.4 °F 9.3 °F 86% 30.78 in 10.0 mi West 6.9 mph - N/A   Clear
8:54 AM 14.2 °F 3.1 °F 10.0 °F 84% 30.77 in 10.0 mi WSW 8.1 mph - N/A   Clear
9:13 AM 15.6 °F 4.9 °F 10.6 °F 80% 30.78 in 10.0 mi West 8.1 mph - N/A   Clear
9:33 AM 16.9 °F 5.5 °F 10.9 °F 77% 30.77 in 10.0 mi WSW 9.2 mph - N/A   Clear
9:53 AM 17.8 °F 8.5 °F 10.9 °F 75% 30.77 in 10.0 mi West 6.9 mph - N/A   Clear
10:13 AM 19.0 °F 9.0 °F 11.3 °F 72% 30.76 in 10.0 mi West 8.1 mph - N/A   Clear
10:33 AM 20.5 °F 9.2 °F 12.0 °F 70% 30.76 in 10.0 mi WSW 10.4 mph - N/A   Clear
10:53 AM 21.0 °F 9.9 °F 10.8 °F 65% 30.75 in 10.0 mi West 10.4 mph - N/A   Clear
11:13 AM 22.1 °F 13.7 °F 11.5 °F 64% 30.74 in 10.0 mi SW 6.9 mph - N/A   Clear
11:34 AM 23.5 °F 14.5 °F 12.2 °F 62% 30.73 in 10.0 mi WSW 8.1 mph - N/A   Clear
11:53 AM 24.1 °F 13.1 °F 10.9 °F 57% 30.72 in 10.0 mi WSW 11.5 mph 16.1 mph N/A   Clear
12:13 PM 25.0 °F 16.3 °F 11.5 °F 57% 30.71 in 10.0 mi WSW 8.1 mph 16.1 mph N/A   Clear
12:33 PM 25.7 °F 17.1 °F 10.6 °F 53% 30.70 in 10.0 mi WSW 8.1 mph - N/A   Clear
12:54 PM 27.0 °F 18.7 °F 11.3 °F 52% 30.69 in 10.0 mi SW 8.1 mph - N/A   Clear
1:14 PM 26.8 °F 18.5 °F 10.8 °F 51% 30.67 in 10.0 mi SW 8.1 mph - N/A   Clear
1:33 PM 28.0 °F 21.7 °F 10.2 °F 47% 30.66 in 10.0 mi WSW 5.8 mph - N/A   Clear
1:53 PM 28.8 °F 21.7 °F 10.9 °F 47% 30.65 in 10.0 mi SSW 6.9 mph - N/A   Clear
2:14 PM 28.8 °F 22.6 °F 10.0 °F 46% 30.64 in 10.0 mi SW 5.8 mph - N/A   Clear
2:34 PM 29.3 °F 20.8 °F 11.1 °F 47% 30.64 in 10.0 mi SSW 9.2 mph - N/A   Clear
2:53 PM 29.7 °F 22.0 °F 10.9 °F 46% 30.63 in 10.0 mi SSW 8.1 mph - N/A   Clear
3:14 PM 29.7 °F 22.0 °F 12.0 °F 48% 30.62 in 10.0 mi SSW 8.1 mph - N/A   Clear
3:33 PM 29.3 °F 20.2 °F 12.0 °F 49% 30.61 in 10.0 mi SSW 10.4 mph - N/A   Clear
3:54 PM 29.1 °F 20.6 °F 12.4 °F 50% 30.62 in 10.0 mi SSW 9.2 mph - N/A   Clear
4:13 PM 28.8 °F 21.7 °F 12.9 °F 52% 30.62 in 10.0 mi SSW 6.9 mph - N/A   Clear
4:34 PM 28.0 °F 21.7 °F 14.0 °F 56% 30.62 in 10.0 mi SSW 5.8 mph - N/A   Clear
4:53 PM 27.0 °F 19.5 °F 14.2 °F 59% 30.61 in 10.0 mi South 6.9 mph - N/A   Clear
5:13 PM 25.7 °F 19.0 °F 15.3 °F 65% 30.60 in 10.0 mi South 5.8 mph - N/A   Clear
5:33 PM 25.2 °F 17.3 °F 15.3 °F 66% 30.58 in 10.0 mi South 6.9 mph - N/A   Clear
5:53 PM 24.8 °F 17.9 °F 14.7 °F 66% 30.58 in 10.0 mi SSW 5.8 mph - N/A   Clear
6:13 PM 23.9 °F 15.8 °F 15.6 °F 71% 30.56 in 10.0 mi South 6.9 mph - N/A   Clear
6:33 PM 23.9 °F 16.8 °F 15.6 °F 71% 30.57 in 10.0 mi South 5.8 mph - N/A   Clear
6:54 PM 23.0 °F 17.0 °F 15.8 °F 74% 30.56 in 10.0 mi South 4.6 mph - N/A   Clear
7:13 PM 22.6 °F 14.3 °F 15.8 °F 75% 30.55 in 10.0 mi South 6.9 mph - N/A   Clear
7:34 PM 22.6 °F 13.4 °F 16.2 °F 76% 30.54 in 10.0 mi South 8.1 mph - N/A   Clear
7:53 PM 22.8 °F 14.5 °F 16.3 °F 76% 30.52 in 10.0 mi South 6.9 mph - N/A   Clear
8:13 PM 22.6 °F 14.3 °F 16.3 °F 77% 30.51 in 10.0 mi South 6.9 mph - N/A   Clear
8:33 PM 22.1 °F 13.7 °F 16.5 °F 79% 30.49 in 10.0 mi South 6.9 mph - N/A   Clear
8:54 PM 21.7 °F 14.3 °F 16.5 °F 80% 30.49 in 10.0 mi South 5.8 mph - N/A   Clear
9:13 PM 21.7 °F 13.2 °F 16.3 °F 80% 30.49 in 10.0 mi South 6.9 mph - N/A   Clear
9:33 PM 21.9 °F 14.5 °F 16.3 °F 79% 30.48 in 10.0 mi South 5.8 mph - N/A   Clear
9:53 PM 21.7 °F 15.5 °F 15.8 °F 78% 30.47 in 10.0 mi South 4.6 mph - N/A   Clear
10:14 PM 21.7 °F 14.3 °F 16.0 °F 78% 30.46 in 10.0 mi South 5.8 mph - N/A   Clear
10:33 PM 21.4 °F 15.1 °F 16.0 °F 80% 30.45 in 10.0 mi South 4.6 mph - N/A   Clear
10:53 PM 21.0 °F 16.2 °F 15.8 °F 80% 30.45 in 10.0 mi South 3.5 mph - N/A   Clear
11:14 PM 20.8 °F 14.4 °F 15.6 °F 80% 30.44 in 10.0 mi South 4.6 mph - N/A   Clear
11:34 PM 20.8 °F 14.4 °F 15.4 °F 80% 30.42 in 10.0 mi South 4.6 mph - N/A   Clear
11:53 PM 21.0 °F 14.6 °F 15.1 °F 78% 30.42 in 10.0 mi South 4.6 mph - N/A   Clear